Aérodrome :
LOGIN :

S'inscrire | Disclaimer

   EN    FR    IT 

 










Légende :    VFR   VFR Marginal   IFR   IFR Intensif   IFR Très Intensif
Visi : 
Plafond : 
>= 8 km
>= 3000ft
5 à 8 km
1000 à 3000 ft
1500m à 5 km
500 à 1000 ft
800 à 1500m
200 à 500 ft
< 800m
< 200 ft
Symboles :   Orages  Brouillard  Fortes neiges  Fortes précipitations  Vent > 20 kt
SIGMETs :   Divers  Orages  Givrage  Turbulence  Onde Orograph.  Cendres Volcan.







- Altitude de l'aérodrome : 614 ft
- Code IATA : CRL


EBCI - Charleroi

DERNIER METAR :
  • 181520Z 25012KT 220V280 9999 SCT024 20/14 Q1022 NOSIG

METARs EXPIRÉS :
  • 181450Z 26011KT 230V290 9999 SCT024 SCT034 20/14 Q1022 NOSIG
  • 181420Z 25011KT 220V290 9999 SCT024 BKN034 20/14 Q1022 NOSIG
  • 181350Z 25015KT 220V280 9999 SCT024 BKN034 20/14 Q1022 NOSIG
  • 181320Z 24014KT 210V270 9999 SCT020 BKN040 19/14 Q1022 NOSIG
  • 181250Z 24015KT 9999 SCT018 BKN030 19/15 Q1022 NOSIG

TAF TAF EBCI
Valide du 18 à 12h jusqu'au 19 à 18h UTC


181100Z 1812/1918 24008KT 9999 SCT007 BKN013
BECMG 1812/1814 SCT017
BECMG 1902/1904 BKN008
PROB30
TEMPO 1903/1907 3500 BR BKN004
BECMG 1907/1909 BKN016
Pas de NOTAMs connus pour ce terrain.



MET'MAP, la Météo Aéronautique d'un coup d'oeil ! - Copyright ORBIFLY Décembre 2007 - Disclaimer

ORBIFLY MET'MAP TEAM :

Programmation & Développement : Alexandra Zaïnal
Conception & Développement : Baudouin d'Aumeries
Co-Programmation & Développement : Marc-Olivier Méhu
Soutien technique & logistique : Manuel Goepfert

Contact : metmap@orbifly.com




SOURCES & CREDITS :

   NOAA